createdAt,value
2022-08-22T00:01:40.031Z,3.80
2022-08-22T00:02:54.874Z,3.42
2022-08-22T00:03:01.450Z,3.72
2022-08-22T00:04:33.481Z,3.70
2022-08-22T00:07:14.682Z,3.92
2022-08-22T00:10:01.674Z,4.28
2022-08-22T00:12:42.629Z,3.70
2022-08-22T00:15:31.576Z,3.70
2022-08-22T00:18:17.932Z,3.60
2022-08-22T00:20:50.020Z,4.05
2022-08-22T00:23:28.175Z,3.33
2022-08-22T00:26:02.960Z,3.83
2022-08-22T00:28:40.775Z,4.15
2022-08-22T00:31:29.008Z,3.60
2022-08-22T00:34:07.451Z,3.50
2022-08-22T00:36:53.011Z,3.30
2022-08-22T00:39:29.490Z,3.65
2022-08-22T00:42:31.619Z,3.55
2022-08-22T00:45:39.834Z,3.88
2022-08-22T00:48:42.749Z,3.92
2022-08-22T00:51:28.435Z,3.28
2022-08-22T00:54:24.050Z,4.00
2022-08-22T00:57:26.355Z,3.30
2022-08-22T01:00:17.469Z,3.60
2022-08-22T01:02:47.147Z,3.70
2022-08-22T01:05:17.665Z,3.33
2022-08-22T01:07:53.825Z,3.75
2022-08-22T01:10:45.252Z,3.55
2022-08-22T01:13:14.836Z,3.70
2022-08-22T01:15:43.227Z,4.05
2022-08-22T01:18:32.234Z,4.05
2022-08-22T01:21:29.545Z,4.07
2022-08-22T01:24:27.660Z,3.85
2022-08-22T01:26:56.717Z,3.80
2022-08-22T01:30:01.355Z,3.67
2022-08-22T01:32:48.384Z,3.50
2022-08-22T01:35:50.427Z,3.85
2022-08-22T01:38:44.795Z,3.72
2022-08-22T01:41:29.287Z,3.72
2022-08-22T01:44:24.404Z,4.05
2022-08-22T01:47:11.609Z,3.42
2022-08-22T01:49:44.641Z,4.13
2022-08-22T01:52:35.982Z,3.30
2022-08-22T01:55:14.309Z,3.53
2022-08-22T01:57:57.532Z,4.63
2022-08-22T02:00:34.710Z,4.63
2022-08-22T02:03:29.698Z,3.95
2022-08-22T02:06:09.035Z,3.92
2022-08-22T02:09:07.261Z,3.97
2022-08-22T02:11:44.022Z,3.92
2022-08-22T02:14:32.875Z,3.50
2022-08-22T02:17:24.243Z,3.88
2022-08-22T02:20:28.482Z,3.53
2022-08-22T02:23:25.918Z,3.83
2022-08-22T02:26:01.486Z,3.53
2022-08-22T02:29:10.882Z,4.00
2022-08-22T02:31:48.173Z,4.25
2022-08-22T02:34:26.117Z,4.38
2022-08-22T02:37:04.066Z,3.85
2022-08-22T02:39:37.061Z,4.32
2022-08-22T02:42:34.549Z,4.20
2022-08-22T02:45:19.184Z,3.97
2022-08-22T02:47:57.064Z,3.70
2022-08-22T02:50:38.376Z,4.20
2022-08-22T02:53:14.036Z,4.07
2022-08-22T02:56:03.356Z,4.20
2022-08-22T02:58:53.782Z,4.32
2022-08-22T03:01:37.212Z,3.85
2022-08-22T03:04:31.816Z,4.18
2022-08-22T03:06:58.458Z,4.18
2022-08-22T03:09:35.016Z,4.28
2022-08-22T03:12:18.904Z,4.22
2022-08-22T03:15:00.334Z,4.28
2022-08-22T03:17:33.505Z,4.40
2022-08-22T03:20:14.164Z,4.22
2022-08-22T03:23:09.925Z,4.40
2022-08-22T03:25:59.867Z,4.32
2022-08-22T03:28:59.808Z,4.50
2022-08-22T03:31:28.873Z,4.30
2022-08-22T03:34:23.891Z,4.15
2022-08-22T03:37:14.664Z,4.38
2022-08-22T03:42:38.881Z,4.60
2022-08-22T03:45:28.540Z,5.15
2022-08-22T03:48:01.627Z,4.78
2022-08-22T03:51:03.681Z,5.00
2022-08-22T03:53:48.541Z,4.78
2022-08-22T03:56:44.988Z,4.57
2022-08-22T03:59:48.677Z,4.63
2022-08-22T04:02:43.084Z,4.22
2022-08-22T04:05:32.083Z,3.78
2022-08-22T04:08:04.811Z,3.80
2022-08-22T04:11:09.657Z,4.38
2022-08-22T04:14:14.270Z,4.03
2022-08-22T04:17:03.231Z,4.25
2022-08-22T04:19:32.736Z,3.83
2022-08-22T04:22:25.931Z,4.22
2022-08-22T04:24:57.926Z,3.83
2022-08-22T04:27:32.652Z,4.60
2022-08-22T04:30:07.189Z,4.22
2022-08-22T04:32:51.185Z,4.47
2022-08-22T04:35:34.226Z,4.22
2022-08-22T04:38:22.665Z,4.50
2022-08-22T04:41:12.588Z,4.53
2022-08-22T04:44:03.874Z,4.17
2022-08-22T04:46:45.507Z,4.45
2022-08-22T04:49:16.794Z,4.65
2022-08-22T04:52:04.637Z,5.30
2022-08-22T04:54:52.307Z,4.90
2022-08-22T04:57:42.802Z,4.78
2022-08-22T05:00:11.416Z,4.40
2022-08-22T05:02:42.419Z,4.50
2022-08-22T05:05:23.892Z,4.57
2022-08-22T05:07:58.194Z,4.30
2022-08-22T05:10:33.472Z,4.53
2022-08-22T05:13:09.784Z,4.28
2022-08-22T05:15:44.699Z,4.40
2022-08-22T05:18:22.904Z,4.32
2022-08-22T05:20:54.101Z,4.10
2022-08-22T05:23:27.291Z,4.80
2022-08-22T05:26:01.257Z,4.82
2022-08-22T05:28:53.265Z,4.30
2022-08-22T05:31:47.352Z,4.20
2022-08-22T05:34:24.136Z,4.55
2022-08-22T05:36:57.352Z,4.53
2022-08-22T05:39:27.875Z,4.50
2022-08-22T05:44:30.523Z,4.65
2022-08-22T05:47:05.060Z,4.88
2022-08-22T05:49:37.494Z,4.97
2022-08-22T05:52:37.345Z,5.22
2022-08-22T05:55:21.939Z,5.50
2022-08-22T05:57:55.868Z,5.80
2022-08-22T06:00:28.520Z,5.80
2022-08-22T06:03:13.228Z,4.82
2022-08-22T06:05:46.704Z,5.35
2022-08-22T06:08:36.451Z,5.80
2022-08-22T06:11:14.206Z,5.28
2022-08-22T06:13:47.193Z,5.57
2022-08-22T06:16:18.191Z,5.13
2022-08-22T06:18:45.860Z,5.18
2022-08-22T06:21:21.559Z,5.07
2022-08-22T06:23:56.708Z,4.95
2022-08-22T06:26:25.970Z,4.78
2022-08-22T06:28:57.756Z,5.18
2022-08-22T06:31:35.841Z,4.80
2022-08-22T06:34:35.080Z,5.05
2022-08-22T06:37:16.883Z,4.53
2022-08-22T06:39:49.316Z,4.90
2022-08-22T06:42:28.522Z,4.90
2022-08-22T06:45:09.988Z,4.55
2022-08-22T06:47:41.228Z,4.65
2022-08-22T06:50:14.842Z,4.80
2022-08-22T06:52:57.535Z,4.40
2022-08-22T06:55:27.859Z,4.13
2022-08-22T06:58:08.299Z,4.70
2022-08-22T07:00:35.469Z,4.53
2022-08-22T07:03:27.648Z,4.35
2022-08-22T07:05:55.895Z,5.43
2022-08-22T07:08:24.819Z,4.95
2022-08-22T07:11:17.374Z,5.13
2022-08-22T07:13:55.019Z,4.93
2022-08-22T07:16:42.834Z,4.25
2022-08-22T07:19:13.214Z,4.50
2022-08-22T07:21:49.039Z,4.70
2022-08-22T07:24:24.660Z,5.40
2022-08-22T07:27:37.619Z,5.07
2022-08-22T07:30:14.533Z,5.20
2022-08-22T07:33:25.219Z,4.90
2022-08-22T07:35:59.831Z,4.90
2022-08-22T07:38:29.009Z,4.97
2022-08-22T07:41:20.239Z,5.13
2022-08-22T07:44:05.482Z,4.93
2022-08-22T07:46:57.104Z,5.20
2022-08-22T07:49:32.537Z,5.47
2022-08-22T07:52:06.077Z,5.10
2022-08-22T07:55:17.810Z,5.10
2022-08-22T07:57:49.790Z,5.13
2022-08-22T08:00:20.233Z,5.10
2022-08-22T08:02:51.562Z,4.78
2022-08-22T08:05:22.036Z,5.38
2022-08-22T08:07:49.264Z,5.18
2022-08-22T08:10:21.494Z,5.00
2022-08-22T08:12:54.192Z,5.43
2022-08-22T08:15:32.202Z,5.55
2022-08-22T08:18:05.624Z,5.05
2022-08-22T08:20:36.191Z,4.63
2022-08-22T08:25:33.931Z,4.20
2022-08-22T08:28:19.881Z,4.47
2022-08-22T08:30:58.794Z,4.13
2022-08-22T08:33:29.174Z,4.40
2022-08-22T08:36:23.505Z,3.92
2022-08-22T08:39:10.179Z,3.33
2022-08-22T08:41:39.783Z,3.42
2022-08-22T08:44:31.534Z,3.47
2022-08-22T08:47:24.922Z,3.20
2022-08-22T08:50:22.963Z,3.45
2022-08-22T08:53:09.875Z,3.10
2022-08-22T08:55:54.512Z,3.38
2022-08-22T08:58:33.647Z,3.22
2022-08-22T09:01:02.029Z,2.83
2022-08-22T09:03:38.031Z,3.30
2022-08-22T09:06:22.975Z,2.97
2022-08-22T09:09:11.928Z,3.03
2022-08-22T09:11:57.653Z,3.05
2022-08-22T09:14:50.361Z,2.33
2022-08-22T09:17:27.167Z,2.40
2022-08-22T09:20:19.417Z,1.75
2022-08-22T09:23:24.121Z,1.90
2022-08-22T09:26:05.767Z,2.50
2022-08-22T09:28:53.407Z,2.10
2022-08-22T09:31:47.884Z,1.98
2022-08-22T09:34:23.803Z,2.30
2022-08-22T09:37:21.920Z,2.08
2022-08-22T09:40:06.491Z,1.77
2022-08-22T09:43:01.689Z,1.77
2022-08-22T09:45:50.102Z,1.90
2022-08-22T09:48:37.547Z,1.25
2022-08-22T09:51:33.158Z,1.40
2022-08-22T09:54:24.498Z,1.58
2022-08-22T09:57:19.577Z,1.65
2022-08-22T10:00:22.175Z,1.52
2022-08-22T10:02:57.953Z,1.27
2022-08-22T10:05:46.456Z,1.90
2022-08-22T10:08:26.658Z,1.42
2022-08-22T10:11:13.448Z,1.10
2022-08-22T10:13:56.609Z,0.88
2022-08-22T10:16:30.855Z,1.35
2022-08-22T10:19:51.828Z,1.23
2022-08-22T10:25:20.698Z,1.50
2022-08-22T10:27:53.353Z,2.25
2022-08-22T10:30:25.715Z,1.65
2022-08-22T10:33:23.615Z,2.13
2022-08-22T10:35:50.146Z,1.70
2022-08-22T10:38:31.902Z,1.73
2022-08-22T10:41:24.436Z,1.60
2022-08-22T10:44:20.083Z,1.60
2022-08-22T10:46:54.973Z,1.70
2022-08-22T10:49:32.582Z,1.38
2022-08-22T10:52:16.075Z,1.30
2022-08-22T10:54:51.265Z,1.20
2022-08-22T10:57:28.245Z,1.23
2022-08-22T11:00:34.318Z,1.45
2022-08-22T11:03:21.467Z,1.35
2022-08-22T11:05:51.843Z,1.40
2022-08-22T11:08:24.539Z,1.10
2022-08-22T11:11:13.948Z,1.10
2022-08-22T11:14:08.164Z,0.98
2022-08-22T11:16:55.325Z,1.33
2022-08-22T11:20:00.169Z,1.30
2022-08-22T11:23:08.169Z,1.10
2022-08-22T11:25:53.704Z,0.98
2022-08-22T11:28:20.479Z,1.13
2022-08-22T11:31:20.114Z,1.33
2022-08-22T11:33:58.263Z,0.98
2022-08-22T11:36:35.646Z,1.08
2022-08-22T11:39:27.743Z,1.15
2022-08-22T11:42:16.244Z,1.10
2022-08-22T11:44:56.530Z,1.30
2022-08-22T11:47:28.205Z,0.90
2022-08-22T11:50:13.709Z,1.30
2022-08-22T11:52:56.181Z,1.20
2022-08-22T11:55:41.347Z,1.33
2022-08-22T11:58:32.128Z,1.40
2022-08-22T12:01:17.098Z,1.30
2022-08-22T12:03:53.985Z,1.50
2022-08-22T12:06:56.257Z,1.30
2022-08-22T12:09:25.899Z,1.25
2022-08-22T12:12:15.531Z,1.20
2022-08-22T12:14:57.201Z,1.33
2022-08-22T12:18:07.208Z,1.15
2022-08-22T12:21:03.758Z,1.30
2022-08-22T12:23:48.910Z,1.48
2022-08-22T12:26:28.169Z,1.40
2022-08-22T12:29:15.475Z,1.65
2022-08-22T12:32:33.983Z,1.52
2022-08-22T12:35:29.921Z,1.45
2022-08-22T12:38:03.040Z,1.20
2022-08-22T12:41:46.864Z,1.30
2022-08-22T12:44:42.500Z,1.30
2022-08-22T12:47:25.023Z,1.60
2022-08-22T12:49:52.591Z,1.20
2022-08-22T12:52:25.123Z,1.50
2022-08-22T12:55:09.010Z,1.40
2022-08-22T12:58:15.557Z,1.30
2022-08-22T13:00:47.388Z,1.10
2022-08-22T13:03:35.275Z,1.10
2022-08-22T13:06:33.568Z,1.15
2022-08-22T13:09:01.440Z,1.38
2022-08-22T13:11:36.057Z,1.10
2022-08-22T13:14:03.449Z,1.20
2022-08-22T13:16:49.060Z,1.15
2022-08-22T13:19:23.818Z,1.23
2022-08-22T13:22:01.216Z,1.13
2022-08-22T13:24:38.714Z,1.30
2022-08-22T13:27:22.197Z,1.23
2022-08-22T13:29:57.393Z,1.23
2022-08-22T13:32:48.133Z,1.55
2022-08-22T13:35:23.944Z,1.20
2022-08-22T13:37:57.336Z,1.38
2022-08-22T13:40:31.955Z,1.23
2022-08-22T13:43:09.285Z,1.15
2022-08-22T13:45:38.143Z,1.00
2022-08-22T13:48:14.118Z,1.00
2022-08-22T13:51:14.461Z,1.15
2022-08-22T13:53:56.179Z,1.35
2022-08-22T13:56:37.794Z,1.08
2022-08-22T13:59:21.852Z,1.02
2022-08-22T14:02:08.995Z,0.98
2022-08-22T14:04:47.749Z,1.40
2022-08-22T14:07:32.747Z,1.50
2022-08-22T14:10:14.815Z,1.20
2022-08-22T14:12:55.090Z,1.13
2022-08-22T14:15:32.207Z,1.00
2022-08-22T14:18:15.886Z,1.17
2022-08-22T14:20:47.578Z,1.15
2022-08-22T14:23:24.193Z,1.10
2022-08-22T14:25:54.885Z,1.05
2022-08-22T14:28:28.745Z,1.10
2022-08-22T14:31:00.737Z,1.40
2022-08-22T14:33:40.032Z,1.10
2022-08-22T14:36:19.939Z,1.10
2022-08-22T14:39:16.591Z,1.20
2022-08-22T14:41:59.372Z,1.00
2022-08-22T14:44:55.396Z,1.02
2022-08-22T14:47:54.698Z,1.27
2022-08-22T14:50:45.922Z,1.02
2022-08-22T14:53:19.897Z,1.13
2022-08-22T14:55:58.671Z,1.23
2022-08-22T14:58:27.715Z,1.23
2022-08-22T15:00:57.064Z,1.50
2022-08-22T15:03:29.306Z,1.63
2022-08-22T15:06:05.979Z,1.70
2022-08-22T15:08:49.278Z,1.50
2022-08-22T15:11:21.940Z,1.42
2022-08-22T15:14:08.302Z,1.40
2022-08-22T15:16:53.618Z,1.70
2022-08-22T15:19:47.275Z,1.60
2022-08-22T15:22:27.516Z,1.60
2022-08-22T15:25:02.740Z,1.50
2022-08-22T15:27:32.339Z,1.48
2022-08-22T15:30:02.614Z,1.40
2022-08-22T15:32:35.032Z,1.50
2022-08-22T15:35:26.686Z,1.67
2022-08-22T15:37:56.365Z,1.40
2022-08-22T15:40:42.831Z,1.73
2022-08-22T15:43:22.975Z,1.38
2022-08-22T15:46:10.074Z,1.10
2022-08-22T15:49:05.544Z,1.10
2022-08-22T15:51:46.436Z,0.90
2022-08-22T15:54:24.227Z,1.35
2022-08-22T15:57:09.871Z,1.30
2022-08-22T15:59:54.120Z,0.98
2022-08-22T16:02:35.447Z,1.30
2022-08-22T16:05:11.590Z,1.00
2022-08-22T16:07:46.324Z,1.00
2022-08-22T16:10:22.101Z,1.38
2022-08-22T16:13:10.666Z,1.13
2022-08-22T16:15:50.198Z,1.02
2022-08-22T16:18:34.600Z,0.93
2022-08-22T16:21:05.060Z,1.30
2022-08-22T16:23:50.078Z,1.10
2022-08-22T16:26:32.112Z,1.13
2022-08-22T16:29:15.024Z,1.30
2022-08-22T16:31:44.370Z,1.17
2022-08-22T16:34:17.092Z,3.00
2022-08-22T16:37:02.325Z,1.80
2022-08-22T16:39:53.572Z,1.30
2022-08-22T16:42:24.349Z,1.73
2022-08-22T16:45:05.967Z,1.52
2022-08-22T16:47:41.715Z,1.40
2022-08-22T16:50:26.986Z,1.90
2022-08-22T16:53:28.754Z,1.60
2022-08-22T16:56:10.352Z,1.30
2022-08-22T16:59:03.336Z,1.40
2022-08-22T17:01:46.365Z,1.40
2022-08-22T17:04:29.588Z,1.70
2022-08-22T17:07:08.174Z,1.33
2022-08-22T17:09:40.745Z,1.45
2022-08-22T17:12:25.846Z,1.30
2022-08-22T17:15:26.804Z,1.40
2022-08-22T17:18:12.079Z,1.30
2022-08-22T17:20:47.930Z,1.40
2022-08-22T17:23:36.339Z,1.50
2022-08-22T17:26:26.447Z,1.30
2022-08-22T17:29:15.138Z,1.70
2022-08-22T17:32:00.540Z,1.35
2022-08-22T17:34:52.662Z,1.33
2022-08-22T17:37:37.842Z,1.52
2022-08-22T17:40:21.193Z,1.40
2022-08-22T17:43:13.185Z,1.55
2022-08-22T17:45:45.762Z,1.48
2022-08-22T17:48:18.735Z,1.75
2022-08-22T17:51:00.682Z,1.77
2022-08-22T17:54:01.353Z,1.60
2022-08-22T17:57:05.692Z,1.52
2022-08-22T17:59:59.560Z,2.03
2022-08-22T18:02:47.877Z,2.10
2022-08-22T18:05:23.298Z,3.25
2022-08-22T18:08:00.366Z,3.00
2022-08-22T18:10:35.902Z,2.25
2022-08-22T18:13:10.115Z,2.53
2022-08-22T18:15:43.385Z,2.20
2022-08-22T18:18:28.240Z,1.85
2022-08-22T18:21:01.412Z,2.25
2022-08-22T18:24:02.139Z,1.92
2022-08-22T18:26:50.444Z,2.13
2022-08-22T18:29:20.268Z,2.42
2022-08-22T18:32:08.689Z,2.45
2022-08-22T18:34:45.883Z,2.63
2022-08-22T18:37:18.617Z,2.28
2022-08-22T18:39:56.452Z,2.60
2022-08-22T18:42:36.617Z,2.25
2022-08-22T18:45:03.687Z,1.88
2022-08-22T18:47:33.147Z,1.90
2022-08-22T18:50:03.251Z,1.92
2022-08-22T18:52:37.243Z,2.15
2022-08-22T18:55:31.210Z,2.30
2022-08-22T18:58:23.207Z,2.50
2022-08-22T19:01:09.999Z,2.55
2022-08-22T19:04:30.501Z,2.38
2022-08-22T19:07:08.859Z,2.15
2022-08-22T19:10:09.659Z,2.53
2022-08-22T19:15:42.298Z,2.08
2022-08-22T19:18:31.691Z,2.40
2022-08-22T19:21:38.203Z,2.15
2022-08-22T19:24:11.329Z,2.20
2022-08-22T19:26:41.855Z,2.08
2022-08-22T19:29:15.995Z,1.95
2022-08-22T19:31:45.639Z,2.17
2022-08-22T19:34:17.213Z,2.13
2022-08-22T19:36:45.640Z,2.40
2022-08-22T19:39:41.151Z,2.50
2022-08-22T19:42:19.894Z,2.20
2022-08-22T19:45:02.235Z,2.38
2022-08-22T19:47:31.960Z,2.55
2022-08-22T19:50:16.897Z,2.80
2022-08-22T19:52:56.705Z,2.75
2022-08-22T19:55:39.152Z,2.50
2022-08-22T19:58:36.367Z,2.50
2022-08-22T20:01:21.703Z,2.28
2022-08-22T20:04:01.562Z,2.10
2022-08-22T20:06:45.745Z,2.70
2022-08-22T20:09:28.686Z,2.15
2022-08-22T20:12:19.983Z,2.22
2022-08-22T20:14:47.450Z,2.03
2022-08-22T20:17:38.935Z,2.47
2022-08-22T20:20:33.942Z,2.20
2022-08-22T20:23:22.257Z,2.30
2022-08-22T20:25:52.901Z,2.70
2022-08-22T20:30:56.364Z,3.22
2022-08-22T20:33:28.586Z,3.58
2022-08-22T20:36:02.599Z,3.35
2022-08-22T20:38:55.533Z,3.40
2022-08-22T20:41:31.883Z,3.60
2022-08-22T20:44:04.485Z,4.32
2022-08-22T20:47:11.268Z,4.10
2022-08-22T20:49:44.981Z,4.55
2022-08-22T20:52:32.686Z,4.80
2022-08-22T20:55:12.784Z,5.00
2022-08-22T20:57:54.400Z,4.82
2022-08-22T21:00:31.650Z,4.82
2022-08-22T21:03:00.625Z,5.05
2022-08-22T21:05:43.351Z,5.10
2022-08-22T21:08:25.213Z,5.35
2022-08-22T21:11:20.844Z,4.82
2022-08-22T21:13:48.454Z,5.60
2022-08-22T21:16:19.291Z,5.43
2022-08-22T21:18:47.557Z,5.75
2022-08-22T21:21:24.663Z,5.45
2022-08-22T21:24:00.505Z,5.90
2022-08-22T21:26:50.509Z,5.93
2022-08-22T21:29:16.995Z,5.93
2022-08-22T21:31:49.946Z,6.30
2022-08-22T21:34:23.209Z,5.82
2022-08-22T21:36:52.851Z,6.13
2022-08-22T21:50:42.390Z,5.55
2022-08-22T21:53:24.744Z,5.10
2022-08-22T21:56:13.603Z,5.35
2022-08-22T21:58:40.408Z,5.78
2022-08-22T22:01:27.341Z,5.13
2022-08-22T22:03:54.484Z,6.05
2022-08-22T22:06:21.096Z,5.90
2022-08-22T22:08:47.589Z,6.10
2022-08-22T22:11:15.387Z,6.63
2022-08-22T22:13:42.739Z,6.63
2022-08-22T22:16:12.063Z,6.70
2022-08-22T22:18:39.873Z,6.45
2022-08-22T22:21:06.787Z,7.00
2022-08-22T22:23:33.298Z,6.70
2022-08-22T22:26:02.613Z,7.47
2022-08-22T22:28:36.591Z,6.65
2022-08-22T22:31:03.680Z,7.40
2022-08-22T22:33:34.229Z,8.98
2022-08-22T22:36:24.097Z,9.07
2022-08-22T22:38:52.558Z,7.77
2022-08-22T22:41:23.340Z,6.63
2022-08-22T22:43:49.820Z,5.93
2022-08-22T22:46:16.368Z,6.57
2022-08-22T22:48:42.903Z,6.60
2022-08-22T22:51:11.487Z,6.40
2022-08-22T22:53:42.778Z,7.32
2022-08-22T22:56:13.569Z,7.10
2022-08-22T22:58:40.850Z,7.70
2022-08-22T23:01:10.710Z,7.15
2022-08-22T23:03:37.935Z,7.25
2022-08-22T23:06:05.185Z,7.78
2022-08-22T23:08:31.687Z,7.20
2022-08-22T23:10:58.432Z,6.97
2022-08-22T23:13:25.068Z,7.65
2022-08-22T23:15:51.577Z,6.78
2022-08-22T23:18:18.140Z,7.80
2022-08-22T23:20:47.482Z,6.78
2022-08-22T23:23:14.024Z,7.10
2022-08-22T23:25:40.547Z,7.22
2022-08-22T23:28:07.000Z,6.90
2022-08-22T23:30:33.654Z,7.78
2022-08-22T23:33:00.234Z,8.48
2022-08-22T23:35:26.780Z,8.80
2022-08-22T23:37:53.366Z,9.60
2022-08-22T23:40:19.969Z,10.10
2022-08-22T23:42:46.609Z,9.27
2022-08-22T23:45:13.180Z,8.32
2022-08-22T23:47:39.806Z,8.95
2022-08-22T23:50:07.705Z,8.93
2022-08-22T23:52:34.282Z,8.70
2022-08-22T23:55:00.779Z,7.70
2022-08-22T23:57:29.353Z,7.50
2022-08-22T23:59:57.902Z,6.90
